createdAt,value
2022-12-12T00:00:28.635Z,-2.82
2022-12-12T00:01:52.673Z,-2.94
2022-12-12T00:02:54.943Z,-3.09
2022-12-12T00:03:57.869Z,-3.09
2022-12-12T00:05:00.027Z,-3.15
2022-12-12T00:06:04.890Z,-3.21
2022-12-12T00:07:07.170Z,-3.29
2022-12-12T00:08:09.360Z,-3.25
2022-12-12T00:09:12.591Z,-3.29
2022-12-12T00:10:14.755Z,-3.28
2022-12-12T00:11:17.071Z,-3.27
2022-12-12T00:12:19.290Z,-3.07
2022-12-12T00:13:21.470Z,-3.05
2022-12-12T00:14:23.611Z,-2.95
2022-12-12T00:15:25.804Z,-2.94
2022-12-12T00:16:28.239Z,-2.93
2022-12-12T00:17:30.352Z,-2.99
2022-12-12T00:18:32.576Z,-2.86
2022-12-12T00:19:34.670Z,-2.86
2022-12-12T00:20:36.893Z,-2.94
2022-12-12T00:21:39.309Z,-2.99
2022-12-12T00:22:41.494Z,-3.01
2022-12-12T00:23:44.441Z,-3.02
2022-12-12T00:24:46.625Z,-3.11
2022-12-12T00:26:00.961Z,-3.07
2022-12-12T00:27:03.279Z,-3.11
2022-12-12T00:28:06.015Z,-3.14
2022-12-12T00:29:08.200Z,-3.20
2022-12-12T00:30:10.853Z,-3.24
2022-12-12T00:31:13.725Z,-3.24
2022-12-12T00:32:15.861Z,-3.31
2022-12-12T00:33:18.364Z,-3.31
2022-12-12T00:34:20.647Z,-3.20
2022-12-12T00:35:22.728Z,-3.18
2022-12-12T00:36:27.628Z,-3.13
2022-12-12T00:37:29.736Z,-3.12
2022-12-12T00:38:32.121Z,-3.02
2022-12-12T00:39:34.504Z,-2.96
2022-12-12T00:40:36.709Z,-2.89
2022-12-12T00:41:38.813Z,-3.03
2022-12-12T00:42:40.997Z,-3.09
2022-12-12T00:43:43.416Z,-3.16
2022-12-12T00:44:45.519Z,-3.24
2022-12-12T00:45:47.641Z,-3.19
2022-12-12T00:46:49.761Z,-3.24
2022-12-12T00:47:51.976Z,-3.19
2022-12-12T00:48:55.900Z,-3.19
2022-12-12T00:49:58.037Z,-3.26
2022-12-12T00:51:09.425Z,-3.30
2022-12-12T00:52:11.570Z,-3.38
2022-12-12T00:53:14.848Z,-3.25
2022-12-12T00:54:17.041Z,-3.13
2022-12-12T00:55:19.493Z,-2.99
2022-12-12T00:56:22.942Z,-2.95
2022-12-12T00:57:25.029Z,-2.88
2022-12-12T00:58:27.332Z,-2.87
2022-12-12T00:59:29.448Z,-2.81
2022-12-12T01:00:32.582Z,-2.79
2022-12-12T01:01:35.973Z,-2.81
2022-12-12T01:02:38.229Z,-2.82
2022-12-12T01:03:42.160Z,-2.88
2022-12-12T01:04:44.255Z,-2.87
2022-12-12T01:05:46.810Z,-2.94
2022-12-12T01:06:48.923Z,-2.99
2022-12-12T01:07:51.152Z,-2.90
2022-12-12T01:08:54.478Z,-2.90
2022-12-12T01:09:56.630Z,-2.86
2022-12-12T01:10:59.312Z,-2.90
2022-12-12T01:12:01.720Z,-2.81
2022-12-12T01:13:04.337Z,-2.79
2022-12-12T01:14:06.585Z,-2.77
2022-12-12T01:15:10.380Z,-2.82
2022-12-12T01:16:13.297Z,-2.82
2022-12-12T01:17:15.471Z,-2.78
2022-12-12T01:18:18.318Z,-2.76
2022-12-12T01:19:20.396Z,-2.68
2022-12-12T01:20:26.205Z,-2.64
2022-12-12T01:21:28.425Z,-2.64
2022-12-12T01:22:30.581Z,-2.65
2022-12-12T01:23:32.681Z,-2.73
2022-12-12T01:24:34.936Z,-2.75
2022-12-12T01:25:37.157Z,-2.78
2022-12-12T01:26:39.278Z,-2.82
2022-12-12T01:27:41.593Z,-2.75
2022-12-12T01:28:44.858Z,-2.63
2022-12-12T01:29:46.943Z,-2.61
2022-12-12T01:30:49.054Z,-2.64
2022-12-12T01:31:51.297Z,-2.58
2022-12-12T01:32:55.053Z,-2.58
2022-12-12T01:33:57.186Z,-2.64
2022-12-12T01:34:59.413Z,-2.58
2022-12-12T01:36:01.536Z,-2.55
2022-12-12T01:37:03.693Z,-2.59
2022-12-12T01:38:05.818Z,-2.69
2022-12-12T01:39:08.117Z,-2.65
2022-12-12T01:40:17.649Z,-2.54
2022-12-12T01:41:21.068Z,-2.58
2022-12-12T01:42:23.191Z,-2.56
2022-12-12T01:43:25.831Z,-2.53
2022-12-12T01:44:41.693Z,-2.50
2022-12-12T01:46:02.660Z,-2.59
2022-12-12T01:47:04.952Z,-2.66
2022-12-12T01:48:07.144Z,-2.72
2022-12-12T01:49:22.803Z,-2.62
2022-12-12T01:50:24.945Z,-2.71
2022-12-12T01:51:28.181Z,-2.71
2022-12-12T01:52:41.410Z,-2.67
2022-12-12T01:53:45.030Z,-2.66
2022-12-12T01:54:54.279Z,-2.72
2022-12-12T01:55:58.599Z,-2.73
2022-12-12T01:57:05.247Z,-2.73
2022-12-12T01:58:07.441Z,-2.75
2022-12-12T01:59:12.717Z,-2.71
2022-12-12T02:00:15.548Z,-2.79
2022-12-12T02:01:20.841Z,-2.75
2022-12-12T02:02:23.021Z,-2.73
2022-12-12T02:03:25.864Z,-2.65
2022-12-12T02:04:28.712Z,-2.73
2022-12-12T02:05:41.545Z,-2.66
2022-12-12T02:06:43.931Z,-2.72
2022-12-12T02:07:46.179Z,-2.65
2022-12-12T02:08:49.965Z,-2.60
2022-12-12T02:09:52.168Z,-2.61
2022-12-12T02:10:54.388Z,-2.58
2022-12-12T02:11:58.880Z,-2.53
2022-12-12T02:13:08.280Z,-2.47
2022-12-12T02:14:11.258Z,-2.53
2022-12-12T02:15:14.475Z,-2.58
2022-12-12T02:16:25.848Z,-2.66
2022-12-12T02:18:03.330Z,-2.56
2022-12-12T02:19:44.017Z,-2.57
2022-12-12T02:21:07.510Z,-2.50
2022-12-12T02:22:18.913Z,-2.52
2022-12-12T02:23:58.520Z,-2.52
2022-12-12T02:25:18.633Z,-2.48
2022-12-12T02:26:49.859Z,-2.57
2022-12-12T02:28:13.073Z,-2.72
2022-12-12T02:29:37.032Z,-2.81
2022-12-12T02:30:49.507Z,-2.66
2022-12-12T02:32:06.649Z,-2.78
2022-12-12T02:33:28.961Z,-2.84
2022-12-12T02:35:03.916Z,-2.93
2022-12-12T02:36:14.898Z,-2.77
2022-12-12T02:37:22.730Z,-2.86
2022-12-12T02:38:34.472Z,-2.99
2022-12-12T02:40:04.814Z,-3.13
2022-12-12T02:41:45.848Z,-3.19
2022-12-12T02:43:15.506Z,-3.21
2022-12-12T02:44:29.951Z,-3.39
2022-12-12T02:45:47.717Z,-3.33
2022-12-12T02:47:21.348Z,-3.31
2022-12-12T02:48:38.963Z,-3.23
2022-12-12T02:49:49.681Z,-3.35
2022-12-12T02:50:53.667Z,-3.32
2022-12-12T02:51:58.266Z,-3.37
2022-12-12T02:53:00.693Z,-3.50
2022-12-12T02:54:13.925Z,-3.52
2022-12-12T02:55:17.612Z,-3.50
2022-12-12T02:56:51.744Z,-3.44
2022-12-12T02:57:55.328Z,-3.53
2022-12-12T02:58:58.286Z,-3.61
2022-12-12T03:00:10.097Z,-3.66
2022-12-12T03:01:15.067Z,-3.77
2022-12-12T03:02:23.040Z,-3.84
2022-12-12T03:04:05.141Z,-3.85
2022-12-12T03:05:31.722Z,-4.00
2022-12-12T03:07:01.307Z,-4.04
2022-12-12T03:08:26.470Z,-4.14
2022-12-12T03:09:54.598Z,-4.24
2022-12-12T03:11:12.812Z,-4.29
2022-12-12T03:12:25.949Z,-4.23
2022-12-12T03:13:50.874Z,-4.33
2022-12-12T03:15:10.317Z,-4.31
2022-12-12T03:16:38.573Z,-4.37
2022-12-12T03:18:00.209Z,-4.35
2022-12-12T03:19:43.871Z,-4.32
2022-12-12T03:21:22.484Z,-4.30
2022-12-12T03:22:27.638Z,-4.19
2022-12-12T03:23:41.792Z,-4.20
2022-12-12T03:24:55.975Z,-4.23
2022-12-12T03:26:11.145Z,-4.25
2022-12-12T03:27:32.732Z,-4.26
2022-12-12T03:28:45.426Z,-4.32
2022-12-12T03:29:56.684Z,-4.36
2022-12-12T03:31:03.802Z,-4.36
2022-12-12T03:32:17.495Z,-4.28
2022-12-12T03:33:25.992Z,-4.27
2022-12-12T03:34:36.108Z,-4.11
2022-12-12T03:35:53.450Z,-4.06
2022-12-12T03:37:04.304Z,-4.08
2022-12-12T03:38:19.818Z,-4.08
2022-12-12T03:39:37.254Z,-3.94
2022-12-12T03:41:08.619Z,-3.84
2022-12-12T03:42:30.629Z,-3.76
2022-12-12T03:43:39.582Z,-3.66
2022-12-12T03:44:49.671Z,-3.53
2022-12-12T03:46:36.900Z,-3.49
2022-12-12T03:47:50.347Z,-3.51
2022-12-12T03:48:58.444Z,-3.45
2022-12-12T03:50:15.637Z,-3.37
2022-12-12T03:51:24.076Z,-3.41
2022-12-12T03:52:33.751Z,-3.43
2022-12-12T03:53:51.957Z,-3.46
2022-12-12T03:55:04.635Z,-3.45
2022-12-12T03:56:21.845Z,-3.46
2022-12-12T03:57:36.665Z,-3.45
2022-12-12T03:58:44.677Z,-3.47
2022-12-12T03:59:54.405Z,-3.38
2022-12-12T04:00:58.431Z,-3.40
2022-12-12T04:02:15.941Z,-3.41
2022-12-12T04:03:42.759Z,-3.36
2022-12-12T04:05:15.661Z,-3.32
2022-12-12T04:06:29.300Z,-3.33
2022-12-12T04:07:38.377Z,-3.35
2022-12-12T04:09:00.534Z,-3.38
2022-12-12T04:10:21.496Z,-3.32
2022-12-12T04:11:42.510Z,-3.23
2022-12-12T04:13:03.401Z,-3.24
2022-12-12T04:14:27.349Z,-3.29
2022-12-12T04:15:35.264Z,-3.32
2022-12-12T04:16:42.584Z,-3.22
2022-12-12T04:18:03.278Z,-3.21
2022-12-12T04:19:13.596Z,-3.25
2022-12-12T04:20:47.553Z,-3.27
2022-12-12T04:22:16.714Z,-3.33
2022-12-12T04:23:46.298Z,-3.28
2022-12-12T04:25:03.415Z,-3.32
2022-12-12T04:26:40.622Z,-3.32
2022-12-12T04:27:51.224Z,-3.36
2022-12-12T04:29:06.911Z,-3.41
2022-12-12T04:30:12.128Z,-3.47
2022-12-12T04:31:17.575Z,-3.52
2022-12-12T04:32:25.538Z,-3.53
2022-12-12T04:33:36.651Z,-3.57
2022-12-12T04:34:42.457Z,-3.61
2022-12-12T04:35:51.015Z,-3.55
2022-12-12T04:36:53.600Z,-3.51
2022-12-12T04:38:04.319Z,-3.43
2022-12-12T04:39:09.452Z,-3.45
2022-12-12T04:40:17.065Z,-3.43
2022-12-12T04:41:21.199Z,-3.48
2022-12-12T04:42:27.463Z,-3.49
2022-12-12T04:43:33.576Z,-3.38
2022-12-12T04:44:40.149Z,-3.41
2022-12-12T04:45:46.201Z,-3.46
2022-12-12T04:46:52.562Z,-3.38
2022-12-12T04:47:56.774Z,-3.31
2022-12-12T04:49:20.067Z,-3.25
2022-12-12T04:50:25.549Z,-3.31
2022-12-12T04:51:34.667Z,-3.29
2022-12-12T04:52:39.288Z,-3.34
2022-12-12T04:53:48.740Z,-3.34
2022-12-12T04:55:12.634Z,-3.34
2022-12-12T04:56:19.581Z,-3.33
2022-12-12T04:57:30.179Z,-3.29
2022-12-12T04:58:32.311Z,-3.32
2022-12-12T04:59:35.397Z,-3.24
2022-12-12T05:00:53.180Z,-3.25
2022-12-12T05:02:02.955Z,-3.32
2022-12-12T05:03:18.653Z,-3.40
2022-12-12T05:04:31.197Z,-3.46
2022-12-12T05:05:43.727Z,-3.54
2022-12-12T05:06:55.761Z,-3.62
2022-12-12T05:08:06.403Z,-3.69
2022-12-12T05:09:08.739Z,-3.80
2022-12-12T05:10:14.323Z,-3.80
2022-12-12T05:11:19.049Z,-3.85
2022-12-12T05:12:21.854Z,-3.89
2022-12-12T05:13:28.093Z,-3.88
2022-12-12T05:14:31.404Z,-3.85
2022-12-12T05:15:33.555Z,-3.87
2022-12-12T05:16:43.498Z,-3.83
2022-12-12T05:17:48.855Z,-3.84
2022-12-12T05:18:51.168Z,-3.89
2022-12-12T05:19:53.331Z,-3.91
2022-12-12T05:20:55.417Z,-3.92
2022-12-12T05:21:57.535Z,-3.94
2022-12-12T05:22:59.674Z,-3.99
2022-12-12T05:24:01.767Z,-4.03
2022-12-12T05:25:04.269Z,-4.04
2022-12-12T05:26:16.449Z,-4.03
2022-12-12T05:27:18.771Z,-4.15
2022-12-12T05:28:20.868Z,-4.22
2022-12-12T05:29:24.007Z,-4.25
2022-12-12T05:30:26.290Z,-4.29
2022-12-12T05:31:28.592Z,-4.36
2022-12-12T05:32:30.692Z,-4.42
2022-12-12T05:33:33.127Z,-4.51
2022-12-12T05:34:35.240Z,-4.59
2022-12-12T05:35:37.510Z,-4.66
2022-12-12T05:36:39.638Z,-4.74
2022-12-12T05:37:46.636Z,-4.78
2022-12-12T05:38:52.155Z,-4.86
2022-12-12T05:39:54.251Z,-4.90
2022-12-12T05:40:56.416Z,-4.94
2022-12-12T05:41:58.869Z,-4.96
2022-12-12T05:43:01.013Z,-4.95
2022-12-12T05:44:03.218Z,-4.87
2022-12-12T05:45:07.361Z,-4.74
2022-12-12T05:46:09.583Z,-4.58
2022-12-12T05:47:11.732Z,-4.48
2022-12-12T05:48:14.080Z,-4.44
2022-12-12T05:49:16.172Z,-4.45
2022-12-12T05:50:18.532Z,-4.46
2022-12-12T05:51:21.778Z,-4.46
2022-12-12T05:52:24.018Z,-4.56
2022-12-12T05:53:26.121Z,-4.64
2022-12-12T05:54:28.232Z,-4.66
2022-12-12T05:55:30.416Z,-4.73
2022-12-12T05:56:32.681Z,-4.74
2022-12-12T05:57:34.914Z,-4.74
2022-12-12T05:58:37.332Z,-4.70
2022-12-12T05:59:39.433Z,-4.68
2022-12-12T06:00:41.561Z,-4.71
2022-12-12T06:01:43.700Z,-4.80
2022-12-12T06:02:46.033Z,-4.86
2022-12-12T06:03:48.260Z,-4.94
2022-12-12T06:04:50.462Z,-5.00
2022-12-12T06:05:52.595Z,-5.01
2022-12-12T06:06:54.709Z,-4.99
2022-12-12T06:07:56.867Z,-4.93
2022-12-12T06:08:59.192Z,-4.81
2022-12-12T06:10:01.403Z,-4.72
2022-12-12T06:11:07.090Z,-4.63
2022-12-12T06:12:09.284Z,-4.71
2022-12-12T06:13:11.749Z,-4.76
2022-12-12T06:14:13.889Z,-4.84
2022-12-12T06:15:16.108Z,-4.88
2022-12-12T06:16:20.149Z,-4.85
2022-12-12T06:17:22.285Z,-4.96
2022-12-12T06:18:24.388Z,-5.01
2022-12-12T06:19:26.511Z,-5.09
2022-12-12T06:20:30.586Z,-5.14
2022-12-12T06:21:32.873Z,-5.19
2022-12-12T06:22:36.170Z,-5.25
2022-12-12T06:23:42.851Z,-5.24
2022-12-12T06:24:44.982Z,-5.37
2022-12-12T06:25:50.702Z,-5.38
2022-12-12T06:26:53.197Z,-5.47
2022-12-12T06:27:55.343Z,-5.52
2022-12-12T06:28:57.426Z,-5.56
2022-12-12T06:29:59.579Z,-5.60
2022-12-12T06:31:03.563Z,-5.57
2022-12-12T06:32:07.740Z,-5.58
2022-12-12T06:33:09.847Z,-5.60
2022-12-12T06:34:11.975Z,-5.64
2022-12-12T06:35:14.390Z,-5.66
2022-12-12T06:36:24.120Z,-5.58
2022-12-12T06:37:26.335Z,-5.58
2022-12-12T06:38:29.806Z,-5.48
2022-12-12T06:39:31.880Z,-5.45
2022-12-12T06:40:34.022Z,-5.34
2022-12-12T06:41:36.507Z,-5.20
2022-12-12T06:42:40.865Z,-5.17
2022-12-12T06:43:47.140Z,-5.19
2022-12-12T06:44:49.227Z,-5.23
2022-12-12T06:45:51.518Z,-5.29
2022-12-12T06:46:53.631Z,-5.40
2022-12-12T06:47:55.712Z,-5.47
2022-12-12T06:48:58.788Z,-5.46
2022-12-12T06:50:00.894Z,-5.44
2022-12-12T06:51:07.715Z,-5.30
2022-12-12T06:52:09.837Z,-5.27
2022-12-12T06:53:12.730Z,-5.29
2022-12-12T06:54:17.672Z,-5.31
2022-12-12T06:55:19.780Z,-5.38
2022-12-12T06:56:24.350Z,-5.33
2022-12-12T06:57:26.941Z,-5.37
2022-12-12T06:58:29.181Z,-5.40
2022-12-12T06:59:31.337Z,-5.46
2022-12-12T07:00:33.455Z,-5.50
2022-12-12T07:01:35.619Z,-5.55
2022-12-12T07:02:37.757Z,-5.65
2022-12-12T07:03:40.501Z,-5.75
2022-12-12T07:04:42.564Z,-5.83
2022-12-12T07:05:46.173Z,-5.88
2022-12-12T07:06:48.264Z,-5.98
2022-12-12T07:07:50.452Z,-6.02
2022-12-12T07:08:53.060Z,-6.07
2022-12-12T07:09:55.557Z,-6.07
2022-12-12T07:11:04.052Z,-6.02
2022-12-12T07:12:06.254Z,-6.04
2022-12-12T07:13:08.431Z,-6.03
2022-12-12T07:14:10.903Z,-6.01
2022-12-12T07:15:13.625Z,-5.97
2022-12-12T07:16:16.481Z,-5.95
2022-12-12T07:17:18.680Z,-5.97
2022-12-12T07:18:20.766Z,-5.95
2022-12-12T07:19:23.098Z,-5.99
2022-12-12T07:20:25.450Z,-6.06
2022-12-12T07:21:27.632Z,-6.12
2022-12-12T07:22:29.950Z,-6.17
2022-12-12T07:23:32.441Z,-6.21
2022-12-12T07:24:34.624Z,-6.22
2022-12-12T07:25:42.169Z,-6.20
2022-12-12T07:26:44.244Z,-6.25
2022-12-12T07:27:46.316Z,-6.25
2022-12-12T07:28:49.782Z,-6.18
2022-12-12T07:29:51.950Z,-6.17
2022-12-12T07:30:54.133Z,-6.16
2022-12-12T07:31:56.477Z,-6.15
2022-12-12T07:32:58.683Z,-6.13
2022-12-12T07:34:00.771Z,-6.06
2022-12-12T07:35:03.305Z,-6.00
2022-12-12T07:36:05.931Z,-5.89
2022-12-12T07:37:08.038Z,-5.72
2022-12-12T07:38:11.209Z,-5.55
2022-12-12T07:39:20.111Z,-5.50
2022-12-12T07:40:23.541Z,-5.32
2022-12-12T07:41:25.660Z,-5.28
2022-12-12T07:42:27.774Z,-5.16
2022-12-12T07:43:32.952Z,-5.10
2022-12-12T07:44:36.201Z,-5.03
2022-12-12T07:45:38.317Z,-5.03
2022-12-12T07:46:40.473Z,-5.07
2022-12-12T07:47:42.777Z,-5.07
2022-12-12T07:48:45.028Z,-5.10
2022-12-12T07:49:47.537Z,-5.17
2022-12-12T07:50:50.201Z,-5.22
2022-12-12T07:51:52.340Z,-5.21
2022-12-12T07:52:54.543Z,-5.20
2022-12-12T07:53:57.306Z,-5.09
2022-12-12T07:54:59.437Z,-5.01
2022-12-12T07:56:05.349Z,-4.90
2022-12-12T07:57:07.478Z,-4.83
2022-12-12T07:58:09.556Z,-4.62
2022-12-12T07:59:12.036Z,-4.46
2022-12-12T08:00:14.676Z,-4.32
2022-12-12T08:01:25.229Z,-4.19
2022-12-12T08:02:27.466Z,-4.14
2022-12-12T08:03:29.629Z,-4.07
2022-12-12T08:04:32.595Z,-4.01
2022-12-12T08:05:34.716Z,-3.89
2022-12-12T08:06:36.886Z,-3.82
2022-12-12T08:07:39.014Z,-3.79
2022-12-12T08:08:42.027Z,-3.78
2022-12-12T08:09:44.138Z,-3.79
2022-12-12T08:10:46.234Z,-3.66
2022-12-12T08:11:48.615Z,-3.51
2022-12-12T08:12:51.376Z,-3.45
2022-12-12T08:13:54.137Z,-3.38
2022-12-12T08:14:56.768Z,-3.34
2022-12-12T08:15:59.361Z,-3.28
2022-12-12T08:17:01.930Z,-3.25
2022-12-12T08:18:04.451Z,-3.16
2022-12-12T08:19:06.970Z,-3.07
2022-12-12T08:20:10.334Z,-2.97
2022-12-12T08:21:17.654Z,-2.87
2022-12-12T08:22:25.471Z,-2.82
2022-12-12T08:23:27.975Z,-2.71
2022-12-12T08:24:30.497Z,-2.62
2022-12-12T08:25:34.217Z,-2.60
2022-12-12T08:26:36.739Z,-2.55
2022-12-12T08:27:39.020Z,-2.49
2022-12-12T08:28:42.138Z,-2.44
2022-12-12T08:29:44.663Z,-2.39
2022-12-12T08:30:51.264Z,-2.32
2022-12-12T08:31:54.111Z,-2.32
2022-12-12T08:32:56.664Z,-2.34
2022-12-12T08:34:00.753Z,-2.22
2022-12-12T08:35:03.866Z,-2.15
2022-12-12T08:36:16.343Z,-1.93
2022-12-12T08:37:20.074Z,-1.85
2022-12-12T08:38:22.593Z,-1.72
2022-12-12T08:39:25.464Z,-1.58
2022-12-12T08:40:27.988Z,-1.51
2022-12-12T08:41:30.394Z,-1.45
2022-12-12T08:42:33.267Z,-1.42
2022-12-12T08:43:40.109Z,-1.39
2022-12-12T08:44:42.632Z,-1.38
2022-12-12T08:45:47.559Z,-1.43
2022-12-12T08:46:50.588Z,-1.50
2022-12-12T08:47:53.208Z,-1.71
2022-12-12T08:48:56.794Z,-1.61
2022-12-12T08:49:59.108Z,-1.61
2022-12-12T08:51:01.831Z,-1.62
2022-12-12T08:52:07.355Z,-1.61
2022-12-12T08:53:09.754Z,-1.56
2022-12-12T08:54:13.233Z,-1.55
2022-12-12T08:55:15.885Z,-1.55
2022-12-12T08:56:19.359Z,-1.54
2022-12-12T08:57:25.916Z,-1.53
2022-12-12T08:58:28.721Z,-1.54
2022-12-12T08:59:31.239Z,-1.51
2022-12-12T09:00:33.762Z,-1.41
2022-12-12T09:01:36.516Z,-1.28
2022-12-12T09:02:39.427Z,-1.16
2022-12-12T09:03:42.052Z,-1.21
2022-12-12T09:04:44.565Z,-1.04
2022-12-12T09:05:47.732Z,-0.94
2022-12-12T09:06:51.095Z,-0.83
2022-12-12T09:07:54.495Z,-0.72
2022-12-12T09:08:58.658Z,-0.57
2022-12-12T09:10:01.898Z,-0.38
2022-12-12T09:11:05.623Z,-0.11
2022-12-12T09:12:09.103Z,0.12
2022-12-12T09:13:12.344Z,0.37
2022-12-12T09:14:15.588Z,0.62
2022-12-12T09:15:18.709Z,0.88
2022-12-12T09:16:23.602Z,1.09
2022-12-12T09:17:26.511Z,1.27
2022-12-12T09:18:29.394Z,1.58
2022-12-12T09:19:32.273Z,2.04
2022-12-12T09:20:34.917Z,2.53
2022-12-12T09:21:37.562Z,2.93
2022-12-12T09:22:40.201Z,3.51
2022-12-12T09:23:42.844Z,4.02
2022-12-12T09:24:45.694Z,4.49
2022-12-12T09:25:48.485Z,4.96
2022-12-12T09:26:51.485Z,5.33
2022-12-12T09:27:54.063Z,5.73
2022-12-12T09:28:56.651Z,6.18
2022-12-12T09:29:59.652Z,6.57
2022-12-12T09:31:05.807Z,6.92
2022-12-12T09:32:08.460Z,7.08
2022-12-12T09:33:12.182Z,7.38
2022-12-12T09:34:14.779Z,7.59
2022-12-12T09:35:17.419Z,7.72
2022-12-12T09:36:20.227Z,7.66
2022-12-12T09:37:22.828Z,7.64
2022-12-12T09:38:25.750Z,7.61
2022-12-12T09:39:28.630Z,7.38
2022-12-12T09:40:45.389Z,7.45
2022-12-12T09:41:48.559Z,7.20
2022-12-12T09:42:52.044Z,7.50
2022-12-12T09:44:06.551Z,7.46
2022-12-12T09:45:09.798Z,7.58
2022-12-12T09:46:25.287Z,7.69
2022-12-12T09:47:51.042Z,8.07
2022-12-12T09:49:02.323Z,8.35
2022-12-12T09:50:31.366Z,8.75
2022-12-12T09:51:35.717Z,9.22
2022-12-12T09:52:38.966Z,9.55
2022-12-12T09:53:45.684Z,9.87
2022-12-12T09:54:48.443Z,10.15
2022-12-12T09:56:21.662Z,10.48
2022-12-12T09:57:34.777Z,10.80
2022-12-12T09:58:56.986Z,11.24
2022-12-12T10:00:09.581Z,11.58
2022-12-12T10:01:19.556Z,12.04
2022-12-12T10:02:37.047Z,12.42
2022-12-12T10:04:11.393Z,12.68
2022-12-12T10:05:37.287Z,13.07
2022-12-12T10:07:14.978Z,12.98
2022-12-12T10:08:36.005Z,12.78
2022-12-12T10:09:48.930Z,12.94
2022-12-12T10:11:07.653Z,13.46
2022-12-12T10:12:14.488Z,13.50
2022-12-12T10:13:27.938Z,13.45
2022-12-12T10:14:34.894Z,13.63
2022-12-12T10:15:41.867Z,13.92
2022-12-12T10:16:45.990Z,13.70
2022-12-12T10:17:49.056Z,13.97
2022-12-12T10:18:55.063Z,14.41
2022-12-12T10:20:08.503Z,14.34
2022-12-12T10:21:32.496Z,14.80
2022-12-12T10:22:43.539Z,14.44
2022-12-12T10:23:51.248Z,14.61
2022-12-12T10:25:00.478Z,14.82
2022-12-12T10:26:08.526Z,14.84
2022-12-12T10:27:13.307Z,14.46
2022-12-12T10:28:19.427Z,13.62
2022-12-12T10:29:26.273Z,13.49
2022-12-12T10:30:34.196Z,13.81
2022-12-12T10:32:15.120Z,13.84
2022-12-12T10:33:27.017Z,14.42
2022-12-12T10:34:41.650Z,14.60
2022-12-12T10:35:58.441Z,15.04
2022-12-12T10:37:18.963Z,14.44
2022-12-12T10:38:44.418Z,14.96
2022-12-12T10:40:22.446Z,15.01
2022-12-12T10:41:54.135Z,15.64
2022-12-12T10:43:01.812Z,15.51
2022-12-12T10:44:19.813Z,15.66
2022-12-12T10:45:52.668Z,15.79
2022-12-12T10:47:07.779Z,14.92
2022-12-12T10:48:11.420Z,14.91
2022-12-12T10:49:21.385Z,14.96
2022-12-12T10:50:41.187Z,15.19
2022-12-12T10:51:48.145Z,15.67
2022-12-12T10:52:51.510Z,15.90
2022-12-12T10:53:54.631Z,15.88
2022-12-12T10:54:59.911Z,16.06
2022-12-12T10:56:20.195Z,15.90
2022-12-12T10:57:28.474Z,15.91
2022-12-12T10:58:43.839Z,16.12
2022-12-12T10:59:53.144Z,16.25
2022-12-12T11:01:04.897Z,16.49
2022-12-12T11:02:28.122Z,16.79
2022-12-12T11:03:41.382Z,17.09
2022-12-12T11:04:46.368Z,17.46
2022-12-12T11:05:49.968Z,17.54
2022-12-12T11:06:55.630Z,17.45
2022-12-12T11:08:03.939Z,16.27
2022-12-12T11:09:10.381Z,16.85
2022-12-12T11:10:35.215Z,17.10
2022-12-12T11:11:38.458Z,16.78
2022-12-12T11:12:41.700Z,16.83
2022-12-12T11:13:49.620Z,16.66
2022-12-12T11:14:54.184Z,16.08
2022-12-12T11:16:07.576Z,15.82
2022-12-12T11:17:25.988Z,15.33
2022-12-12T11:18:30.430Z,14.27
2022-12-12T11:19:39.678Z,13.25
2022-12-12T11:20:48.315Z,13.66
2022-12-12T11:21:52.876Z,13.98
2022-12-12T11:22:57.317Z,14.34
2022-12-12T11:24:03.559Z,14.06
2022-12-12T11:25:07.401Z,13.50
2022-12-12T11:26:17.123Z,13.53
2022-12-12T11:27:31.044Z,13.58
2022-12-12T11:28:38.179Z,13.25
2022-12-12T11:29:40.706Z,12.98
2022-12-12T11:30:44.660Z,12.33
2022-12-12T11:31:47.291Z,12.68
2022-12-12T11:32:54.934Z,12.71
2022-12-12T11:34:06.510Z,12.38
2022-12-12T11:35:34.778Z,12.43
2022-12-12T11:36:40.946Z,12.36
2022-12-12T11:37:49.822Z,12.36
2022-12-12T11:38:56.187Z,12.02
2022-12-12T11:39:58.946Z,11.71
2022-12-12T11:41:05.024Z,12.12
2022-12-12T11:42:13.591Z,11.84
2022-12-12T11:43:29.907Z,12.15
2022-12-12T11:44:37.594Z,12.38
2022-12-12T11:45:40.196Z,12.93
2022-12-12T11:46:42.957Z,13.50
2022-12-12T11:47:47.321Z,13.79
2022-12-12T11:48:52.728Z,14.44
2022-12-12T11:50:00.191Z,14.76
2022-12-12T11:51:03.874Z,14.33
2022-12-12T11:52:31.236Z,13.35
2022-12-12T11:53:39.295Z,13.07
2022-12-12T11:54:41.799Z,12.01
2022-12-12T11:56:13.936Z,11.13
2022-12-12T11:57:45.764Z,9.99
2022-12-12T11:59:23.321Z,9.30
2022-12-12T12:00:35.699Z,8.26
2022-12-12T12:01:50.800Z,7.68
2022-12-12T12:03:27.685Z,6.95
2022-12-12T12:04:55.177Z,6.60
2022-12-12T12:06:15.896Z,6.21
2022-12-12T12:07:52.160Z,6.16
2022-12-12T12:09:24.410Z,5.82
2022-12-12T12:10:45.525Z,5.82
2022-12-12T12:12:15.286Z,5.65
2022-12-12T12:13:33.060Z,5.25
2022-12-12T12:14:53.332Z,5.05
2022-12-12T12:16:05.688Z,4.80
2022-12-12T12:17:26.570Z,4.77
2022-12-12T12:18:54.412Z,4.43
2022-12-12T12:20:18.419Z,4.38
2022-12-12T12:22:03.653Z,4.92
2022-12-12T12:23:22.997Z,5.69
2022-12-12T12:24:37.261Z,5.90
2022-12-12T12:25:42.422Z,6.02
2022-12-12T12:27:01.864Z,6.03
2022-12-12T12:28:43.624Z,5.82
2022-12-12T12:29:52.025Z,5.61
2022-12-12T12:31:12.472Z,5.47
2022-12-12T12:32:29.831Z,5.21
2022-12-12T12:33:58.992Z,5.02
2022-12-12T12:35:17.236Z,4.78
2022-12-12T12:36:45.799Z,4.84
2022-12-12T12:37:54.319Z,4.83
2022-12-12T12:39:20.603Z,4.82
2022-12-12T12:40:48.448Z,4.98
2022-12-12T12:41:59.725Z,5.02
2022-12-12T12:43:34.051Z,5.27
2022-12-12T12:44:55.419Z,5.29
2022-12-12T12:46:07.560Z,5.35
2022-12-12T12:47:52.790Z,5.19
2022-12-12T12:49:14.626Z,5.12
2022-12-12T12:50:28.063Z,4.98
2022-12-12T12:51:43.111Z,4.97
2022-12-12T12:53:02.862Z,4.94
2022-12-12T12:54:21.354Z,4.75
2022-12-12T12:55:30.109Z,5.01
2022-12-12T12:56:44.515Z,5.27
2022-12-12T12:57:50.753Z,5.55
2022-12-12T12:58:57.231Z,5.42
2022-12-12T13:00:10.441Z,6.32
2022-12-12T13:01:20.003Z,6.63
2022-12-12T13:02:47.778Z,6.95
2022-12-12T13:04:06.123Z,7.74
2022-12-12T13:05:45.964Z,8.49
2022-12-12T13:06:51.847Z,8.89
2022-12-12T13:08:13.347Z,9.28
2022-12-12T13:09:32.894Z,9.53
2022-12-12T13:10:38.172Z,9.40
2022-12-12T13:11:46.095Z,9.44
2022-12-12T13:12:57.255Z,9.14
2022-12-12T13:14:13.819Z,9.52
2022-12-12T13:15:35.336Z,9.22
2022-12-12T13:16:39.261Z,9.12
2022-12-12T13:17:49.103Z,9.38
2022-12-12T13:19:21.268Z,9.62
2022-12-12T13:20:26.428Z,9.25
2022-12-12T13:21:59.670Z,9.20
2022-12-12T13:23:38.558Z,9.34
2022-12-12T13:25:09.754Z,9.32
2022-12-12T13:26:15.997Z,9.21
2022-12-12T13:27:26.560Z,9.12
2022-12-12T13:28:42.160Z,8.65
2022-12-12T13:29:47.685Z,8.74
2022-12-12T13:31:08.098Z,8.69
2022-12-12T13:32:52.300Z,8.98
2022-12-12T13:34:07.256Z,8.97
2022-12-12T13:35:15.031Z,8.78
2022-12-12T13:36:29.063Z,8.60
2022-12-12T13:37:43.136Z,7.93
2022-12-12T13:38:53.217Z,7.86
2022-12-12T13:40:01.908Z,7.93
2022-12-12T13:41:06.902Z,7.54
2022-12-12T13:42:12.064Z,7.35
2022-12-12T13:43:49.868Z,7.04
2022-12-12T13:44:52.629Z,6.72
2022-12-12T13:45:55.726Z,6.37
2022-12-12T13:46:58.394Z,6.06
2022-12-12T13:48:04.790Z,5.81
2022-12-12T13:49:07.589Z,5.44
2022-12-12T13:50:10.162Z,5.14
2022-12-12T13:51:28.183Z,4.71
2022-12-12T13:52:42.481Z,4.27
2022-12-12T13:53:45.327Z,4.07
2022-12-12T13:54:49.077Z,4.02
2022-12-12T13:56:30.132Z,3.97
2022-12-12T13:57:33.135Z,3.82
2022-12-12T13:58:35.883Z,3.70
2022-12-12T13:59:53.664Z,3.40
2022-12-12T14:01:47.201Z,3.14
2022-12-12T14:03:08.109Z,2.74
2022-12-12T14:04:28.685Z,2.53
2022-12-12T14:05:44.891Z,2.26
2022-12-12T14:07:00.485Z,2.15
2022-12-12T14:08:11.844Z,2.02
2022-12-12T14:09:21.863Z,1.90
2022-12-12T14:10:31.456Z,1.78
2022-12-12T14:11:37.704Z,1.81
2022-12-12T14:12:40.934Z,1.80
2022-12-12T14:13:46.212Z,1.70
2022-12-12T14:15:18.632Z,1.60
2022-12-12T14:16:26.435Z,1.45
2022-12-12T14:17:38.231Z,1.34
2022-12-12T14:18:50.067Z,1.29
2022-12-12T14:19:55.460Z,1.24
2022-12-12T14:21:02.663Z,1.29
2022-12-12T14:22:05.551Z,1.18
2022-12-12T14:23:24.031Z,1.34
2022-12-12T14:24:32.546Z,1.38
2022-12-12T14:25:38.195Z,1.47
2022-12-12T14:26:40.834Z,1.52
2022-12-12T14:27:52.195Z,1.51
2022-12-12T14:29:16.367Z,1.60
2022-12-12T14:30:22.708Z,1.45
2022-12-12T14:31:33.384Z,1.29
2022-12-12T14:32:46.361Z,1.21
2022-12-12T14:33:58.741Z,1.04
2022-12-12T14:35:19.953Z,0.95
2022-12-12T14:36:54.896Z,0.88
2022-12-12T14:38:27.746Z,0.84
2022-12-12T14:39:42.517Z,0.80
2022-12-12T14:40:48.640Z,0.76
2022-12-12T14:41:54.165Z,0.68
2022-12-12T14:43:28.288Z,0.65
2022-12-12T14:44:36.207Z,0.56
2022-12-12T14:45:52.739Z,0.53
2022-12-12T14:46:58.500Z,0.45
2022-12-12T14:48:19.857Z,0.50
2022-12-12T14:49:22.983Z,0.41
2022-12-12T14:50:26.095Z,0.29
2022-12-12T14:51:33.896Z,0.33
2022-12-12T14:52:37.266Z,0.25
2022-12-12T14:53:44.342Z,0.21
2022-12-12T14:54:49.383Z,0.13
2022-12-12T14:55:58.629Z,0.19
2022-12-12T14:57:04.505Z,0.07
2022-12-12T14:58:07.629Z,-0.02